»·PEaware :: SKY123 KMMV-KTMK

SKY123 :: KMMV-KTMK

FLIGHT INFORMATION

Flight Status: Arrived
Operator:
Sky High Charters
More flights by this operator :: More flights under this callsign
Pilot: Napoleon Ma Jr J. (21170)
Aircraft: CESSNA 172 SKYHAWK
(C172)
More flights by this aircraft type
Origin: KMMV McMinnville Mun
United States
Destination: KTMK Tillamook
United States
More flights between these airports :: More routes between these airports
Route: UBG V182 ONP V27 ULKAW
File this flight plan on PilotEdge
Remarks: SCENARIO #5
Altitude:
(Current/Filed)
8,000ft
Speed:
(Current/Filed)
115kts
Departed: 11-Jan-19 05:56 PM
Arrived: 11-Jan-19 07:30 PM
Distance/Time
Traveled:
32nm/1:34
Distance/Time
To Go:
Arrived

Flight Plot

Page will automatically refresh every two minutes.

Flight plan parsing failed; only flown route is shown


Map Options




Map Legend


Flown Route
Filed Route
Departure Airport
Arrival Airport
Navaid (VOR, NDB)
Fix

Horizontal Profiles

Position Reports

Time Latitude Longitude Heading Altitude Ground
Speed
11-Jan-19 17:37 45.198809 -123.137594 327 151ft 0kts
11-Jan-19 17:38 45.198809 -123.137594 327 151ft 0kts
11-Jan-19 17:39 45.198809 -123.137594 327 151ft 0kts
11-Jan-19 17:40 45.198809 -123.137594 327 151ft 0kts
11-Jan-19 17:41 45.198809 -123.137594 327 151ft 0kts
11-Jan-19 17:42 45.198809 -123.137594 327 151ft 0kts
11-Jan-19 17:43 45.198809 -123.137594 327 151ft 0kts
11-Jan-19 17:44 45.198809 -123.137594 327 151ft 0kts
11-Jan-19 17:45 45.198809 -123.137594 327 151ft 0kts
11-Jan-19 17:46 45.198809 -123.137594 327 151ft 0kts
11-Jan-19 17:47 45.198809 -123.137594 327 151ft 0kts
11-Jan-19 17:48 45.198809 -123.137594 327 151ft 0kts
11-Jan-19 17:49 45.198809 -123.137594 327 151ft 0kts
11-Jan-19 17:50 45.198663 -123.137845 156 151ft 6kts
11-Jan-19 17:51 45.196673 -123.140240 236 148ft 21kts
11-Jan-19 17:52 45.193200 -123.147830 239 143ft 20kts
11-Jan-19 17:53 45.192499 -123.148659 171 141ft 0kts
11-Jan-19 17:54 45.192461 -123.148650 168 141ft 3kts
11-Jan-19 17:55 45.196203 -123.137548 56 336ft 70kts
11-Jan-19 17:57 45.205341 -123.111814 54 1089ft 75kts
11-Jan-19 17:58 45.215074 -123.084400 53 1806ft 77kts
11-Jan-19 17:59 45.226751 -123.059015 55 2468ft 80kts
11-Jan-19 18:00 45.237375 -123.031906 52 3098ft 80kts
11-Jan-19 18:01 45.249253 -123.007031 13 3662ft 73kts
11-Jan-19 18:02 45.269454 -123.000833 358 4190ft 76kts
11-Jan-19 18:03 45.290703 -122.996442 8 4727ft 79kts
11-Jan-19 18:04 45.311835 -122.991296 15 5212ft 78kts
11-Jan-19 18:05 45.333210 -122.983671 11 5667ft 85kts
11-Jan-19 18:06 45.356159 -122.977714 11 6134ft 88kts
11-Jan-19 18:07 45.372048 -122.995422 231 6526ft 99kts
11-Jan-19 18:08 45.350503 -123.014557 200 6968ft 90kts
11-Jan-19 18:09 45.329478 -123.023394 123 7334ft 71kts
11-Jan-19 18:10 45.336091 -122.997749 55 7682ft 80kts
11-Jan-19 18:11 45.353718 -122.979068 32 7956ft 91kts
11-Jan-19 18:12 45.367714 -123.007378 228 8023ft 110kts
11-Jan-19 18:13 45.344809 -123.023344 187 7955ft 89kts
11-Jan-19 18:14 45.320833 -123.033707 187 7975ft 92kts
11-Jan-19 18:15 45.298576 -123.052862 223 7954ft 86kts
11-Jan-19 18:15 45.284352 -123.070209 230 7942ft 77kts
11-Jan-19 18:16 45.271407 -123.094203 238 7960ft 77kts
11-Jan-19 18:18 45.254229 -123.121174 230 7960ft 78kts
11-Jan-19 18:19 45.239217 -123.144261 234 7943ft 79kts
11-Jan-19 18:19 45.226932 -123.163813 228 7934ft 79kts
11-Jan-19 18:20 45.210533 -123.184949 229 7934ft 79kts
11-Jan-19 18:21 45.195846 -123.208052 234 7933ft 78kts
11-Jan-19 18:22 45.182246 -123.232089 233 7933ft 78kts
11-Jan-19 18:23 45.167977 -123.255227 233 7933ft 78kts
11-Jan-19 18:24 45.153582 -123.278452 233 7933ft 78kts
11-Jan-19 18:25 45.138921 -123.301242 229 7933ft 78kts
11-Jan-19 18:26 45.123010 -123.322583 228 7933ft 78kts
11-Jan-19 18:27 45.107312 -123.343474 229 7958ft 76kts
11-Jan-19 18:28 45.090676 -123.363211 225 7965ft 79kts
11-Jan-19 18:29 45.073660 -123.383060 228 7962ft 79kts
11-Jan-19 18:30 45.057305 -123.404229 232 7959ft 79kts
11-Jan-19 18:31 45.044725 -123.432682 230 7960ft 94kts
11-Jan-19 18:32 45.028888 -123.463384 212 7954ft 99kts
11-Jan-19 18:33 45.007963 -123.489377 207 7949ft 101kts
11-Jan-19 18:34 44.986281 -123.515160 207 7945ft 101kts
11-Jan-19 18:35 44.964994 -123.540645 207 7940ft 99kts
11-Jan-19 18:36 44.944960 -123.566831 211 7939ft 98kts
11-Jan-19 18:37 44.925940 -123.594184 213 7939ft 97kts
11-Jan-19 18:38 44.908301 -123.623859 216 7940ft 98kts
11-Jan-19 18:39 44.889314 -123.651016 209 7945ft 97kts
11-Jan-19 18:40 44.869278 -123.675839 206 7943ft 94kts
11-Jan-19 18:41 44.848525 -123.697799 201 7943ft 92kts
11-Jan-19 18:42 44.828216 -123.721367 209 7942ft 94kts
11-Jan-19 18:43 44.808630 -123.746835 209 7940ft 93kts
11-Jan-19 18:44 44.789527 -123.771584 209 7936ft 92kts
11-Jan-19 18:45 44.770538 -123.796181 211 7931ft 92kts
11-Jan-19 18:46 44.751982 -123.821217 210 7927ft 90kts
11-Jan-19 18:47 44.733771 -123.847285 211 7923ft 90kts
11-Jan-19 18:48 44.715297 -123.872450 211 7923ft 90kts
11-Jan-19 18:49 44.696766 -123.898109 211 7922ft 90kts
11-Jan-19 18:50 44.678567 -123.922829 210 7922ft 88kts
11-Jan-19 18:51 44.661012 -123.946666 210 7922ft 86kts
11-Jan-19 18:52 44.643699 -123.970103 208 7922ft 81kts
11-Jan-19 18:53 44.627375 -123.991984 209 7922ft 76kts
11-Jan-19 18:54 44.611615 -124.012972 205 7923ft 74kts
11-Jan-19 18:55 44.595606 -124.033395 210 7922ft 77kts
11-Jan-19 18:56 44.579905 -124.055391 210 7923ft 78kts
11-Jan-19 18:57 44.580741 -124.085658 339 7921ft 111kts
11-Jan-19 18:58 44.608012 -124.072917 45 7923ft 103kts
11-Jan-19 18:59 44.633597 -124.049858 34 7923ft 110kts
11-Jan-19 19:00 44.666512 -124.047003 6 7923ft 117kts
11-Jan-19 19:01 44.699479 -124.043268 14 7923ft 115kts
11-Jan-19 19:02 44.732513 -124.036659 14 7923ft 116kts
11-Jan-19 19:03 44.764965 -124.031972 12 7923ft 116kts
11-Jan-19 19:04 44.796758 -124.028364 12 7923ft 112kts
11-Jan-19 19:05 44.827436 -124.024611 12 7922ft 107kts
11-Jan-19 19:06 44.855553 -124.021287 13 7922ft 95kts
11-Jan-19 19:07 44.879493 -124.018879 16 7833ft 83kts
11-Jan-19 19:08 44.907479 -124.013824 13 7190ft 130kts
11-Jan-19 19:09 44.942554 -124.007304 17 6327ft 117kts
11-Jan-19 19:10 44.974612 -124.004267 10 5921ft 113kts
11-Jan-19 19:11 45.005388 -124.001283 11 5908ft 108kts
11-Jan-19 19:12 45.035074 -124.001253 11 5996ft 108kts
11-Jan-19 19:13 45.066082 -124.000267 10 5990ft 110kts
11-Jan-19 19:14 45.096173 -123.998638 7 5985ft 107kts
11-Jan-19 19:15 45.124777 -123.996933 12 5997ft 99kts
11-Jan-19 19:16 45.150276 -123.988658 29 5983ft 93kts
11-Jan-19 19:17 45.172425 -123.970153 33 5979ft 100kts
11-Jan-19 19:18 45.199145 -123.956034 30 5919ft 104kts
11-Jan-19 19:19 45.225165 -123.940072 36 5288ft 99kts
11-Jan-19 19:20 45.248715 -123.922240 34 4581ft 93kts
11-Jan-19 19:21 45.270844 -123.907037 32 3929ft 91kts
11-Jan-19 19:22 45.293941 -123.894197 27 3344ft 88kts
11-Jan-19 19:23 45.316346 -123.879835 33 2829ft 89kts
11-Jan-19 19:24 45.338182 -123.864353 25 2397ft 88kts
11-Jan-19 19:25 45.360775 -123.851485 29 1893ft 87kts
11-Jan-19 19:26 45.385441 -123.841779 38 843ft 93kts
11-Jan-19 19:27 45.402333 -123.827200 35 344ft 53kts
11-Jan-19 19:28 45.415879 -123.815730 31 35ft 52kts
11-Jan-19 19:29 45.420486 -123.812072 322 33ft 9kts
11-Jan-19 19:30 45.420901 -123.812964 304 33ft 0kts
11-Jan-19 19:31 45.420985 -123.815717 246 30ft 1kts
11-Jan-19 19:32 45.419555 -123.816984 235 28ft 11kts
11-Jan-19 19:33 45.418530 -123.817925 257 27ft 0kts
11-Jan-19 19:34 45.418530 -123.817925 257 27ft 0kts

Navigation Log

Ident Type
Flight plan parsing failed, navigation log unavailable